createdAt,value
2022-12-08T00:01:06.910Z,100669.81
2022-12-08T00:02:10.143Z,100663.78
2022-12-08T00:03:13.241Z,100656.06
2022-12-08T00:04:16.082Z,100662.91
2022-12-08T00:05:37.544Z,100659.47
2022-12-08T00:07:01.323Z,100656.91
2022-12-08T00:08:23.230Z,100662.97
2022-12-08T00:09:39.166Z,100664.66
2022-12-08T00:10:49.764Z,100664.63
2022-12-08T00:11:57.974Z,100663.75
2022-12-08T00:13:00.672Z,100661.22
2022-12-08T00:14:03.635Z,100668.97
2022-12-08T00:15:07.029Z,100662.16
2022-12-08T00:16:10.136Z,100651.00
2022-12-08T00:17:15.182Z,100661.28
2022-12-08T00:18:17.865Z,100660.50
2022-12-08T00:19:21.642Z,100665.62
2022-12-08T00:20:24.183Z,100663.06
2022-12-08T00:21:26.791Z,100667.37
2022-12-08T00:22:29.655Z,100663.09
2022-12-08T00:23:32.306Z,100668.25
2022-12-08T00:24:39.619Z,100663.97
2022-12-08T00:25:42.300Z,100666.56
2022-12-08T00:26:45.328Z,100665.72
2022-12-08T00:27:47.980Z,100662.31
2022-12-08T00:28:51.047Z,100660.66
2022-12-08T00:29:53.918Z,100661.50
2022-12-08T00:30:56.613Z,100660.66
2022-12-08T00:31:59.326Z,100661.50
2022-12-08T00:33:02.297Z,100667.53
2022-12-08T00:34:05.439Z,100672.69
2022-12-08T00:35:08.759Z,100670.09
2022-12-08T00:36:14.205Z,100670.97
2022-12-08T00:37:16.806Z,100673.53
2022-12-08T00:38:19.480Z,100664.97
2022-12-08T00:39:22.044Z,100668.41
2022-12-08T00:40:24.935Z,100677.00
2022-12-08T00:41:46.889Z,100677.00
2022-12-08T00:42:49.478Z,100677.94
2022-12-08T00:43:52.125Z,100673.63
2022-12-08T00:44:54.832Z,100673.66
2022-12-08T00:45:57.805Z,100679.66
2022-12-08T00:47:00.539Z,100678.81
2022-12-08T00:48:03.235Z,100683.97
2022-12-08T00:49:06.288Z,100683.09
2022-12-08T00:50:09.439Z,100679.69
2022-12-08T00:51:12.338Z,100685.69
2022-12-08T00:52:15.025Z,100678.81
2022-12-08T00:53:17.678Z,100680.50
2022-12-08T00:54:20.448Z,100675.38
2022-12-08T00:55:23.788Z,100677.09
2022-12-08T00:56:27.109Z,100681.41
2022-12-08T00:57:29.815Z,100681.41
2022-12-08T00:58:32.413Z,100676.25
2022-12-08T00:59:35.069Z,100667.66
2022-12-08T01:00:40.738Z,100680.53
2022-12-08T01:01:45.636Z,100675.38
2022-12-08T01:02:48.470Z,100680.53
2022-12-08T01:03:51.352Z,100681.37
2022-12-08T01:04:54.108Z,100677.94
2022-12-08T01:05:56.698Z,100674.53
2022-12-08T01:06:59.636Z,100675.38
2022-12-08T01:08:02.350Z,100679.66
2022-12-08T01:09:08.159Z,100667.66
2022-12-08T01:10:10.789Z,100677.94
2022-12-08T01:11:17.047Z,100679.66
2022-12-08T01:12:19.955Z,100679.62
2022-12-08T01:13:22.757Z,100683.97
2022-12-08T01:14:25.777Z,100681.37
2022-12-08T01:15:28.582Z,100676.22
2022-12-08T01:16:34.277Z,100678.78
2022-12-08T01:17:38.103Z,100680.53
2022-12-08T01:18:40.855Z,100671.06
2022-12-08T01:19:43.600Z,100677.97
2022-12-08T01:20:46.663Z,100668.50
2022-12-08T01:21:49.357Z,100671.94
2022-12-08T01:22:52.299Z,100669.38
2022-12-08T01:23:55.083Z,100673.63
2022-12-08T01:24:57.735Z,100671.06
2022-12-08T01:26:07.918Z,100678.81
2022-12-08T01:27:10.604Z,100677.94
2022-12-08T01:28:13.672Z,100679.66
2022-12-08T01:29:16.707Z,100671.94
2022-12-08T01:30:20.214Z,100670.25
2022-12-08T01:31:23.700Z,100677.94
2022-12-08T01:32:26.656Z,100668.53
2022-12-08T01:33:29.843Z,100688.22
2022-12-08T01:34:32.470Z,100680.53
2022-12-08T01:35:35.106Z,100678.81
2022-12-08T01:36:38.567Z,100684.81
2022-12-08T01:37:41.344Z,100685.69
2022-12-08T01:38:44.334Z,100687.38
2022-12-08T01:39:47.324Z,100685.69
2022-12-08T01:40:50.031Z,100691.75
2022-12-08T01:41:52.705Z,100691.75
2022-12-08T01:42:55.392Z,100692.59
2022-12-08T01:44:08.370Z,100693.47
2022-12-08T01:45:33.281Z,100689.19
2022-12-08T01:46:38.240Z,100692.62
2022-12-08T01:47:49.993Z,100692.59
2022-12-08T01:48:58.683Z,100684.03
2022-12-08T01:50:03.232Z,100672.88
2022-12-08T01:51:07.134Z,100677.13
2022-12-08T01:52:26.847Z,100684.00
2022-12-08T01:53:35.587Z,100677.94
2022-12-08T01:55:02.101Z,100679.66
2022-12-08T01:56:15.295Z,100671.09
2022-12-08T01:57:27.031Z,100689.97
2022-12-08T01:58:34.947Z,100685.69
2022-12-08T01:59:46.913Z,100686.56
2022-12-08T02:00:51.560Z,100683.09
2022-12-08T02:01:54.984Z,100687.41
2022-12-08T02:03:00.935Z,100682.28
2022-12-08T02:04:07.100Z,100688.22
2022-12-08T02:05:10.006Z,100684.78
2022-12-08T02:06:13.461Z,100683.09
2022-12-08T02:07:17.718Z,100683.12
2022-12-08T02:08:20.816Z,100684.81
2022-12-08T02:09:24.644Z,100682.22
2022-12-08T02:10:30.758Z,100681.37
2022-12-08T02:11:33.330Z,100674.50
2022-12-08T02:12:36.568Z,100678.78
2022-12-08T02:13:41.867Z,100677.97
2022-12-08T02:14:44.454Z,100682.22
2022-12-08T02:16:28.991Z,100673.66
2022-12-08T02:17:37.149Z,100677.03
2022-12-08T02:19:33.870Z,100668.47
2022-12-08T02:20:48.968Z,100669.28
2022-12-08T02:22:07.052Z,100673.56
2022-12-08T02:23:15.893Z,100674.44
2022-12-08T02:24:46.332Z,100677.00
2022-12-08T02:26:26.492Z,100672.72
2022-12-08T02:27:54.778Z,100672.72
2022-12-08T02:29:16.215Z,100675.34
2022-12-08T02:30:22.045Z,100671.94
2022-12-08T02:31:52.683Z,100659.06
2022-12-08T02:33:13.966Z,100667.66
2022-12-08T02:34:35.823Z,100665.06
2022-12-08T02:36:05.190Z,100669.34
2022-12-08T02:37:41.349Z,100664.22
2022-12-08T02:38:43.913Z,100667.66
2022-12-08T02:40:02.600Z,100667.66
2022-12-08T02:41:28.902Z,100676.25
2022-12-08T02:42:52.633Z,100677.94
2022-12-08T02:43:59.538Z,100679.69
2022-12-08T02:45:17.598Z,100692.56
2022-12-08T02:46:35.949Z,100687.41
2022-12-08T02:47:39.837Z,100692.56
2022-12-08T02:48:42.821Z,100692.56
2022-12-08T02:49:45.545Z,100686.53
2022-12-08T02:50:48.245Z,100688.25
2022-12-08T02:51:51.155Z,100692.53
2022-12-08T02:52:54.368Z,100687.38
2022-12-08T02:53:57.274Z,100681.41
2022-12-08T02:55:09.483Z,100676.28
2022-12-08T02:56:12.022Z,100674.53
2022-12-08T02:57:46.050Z,100672.81
2022-12-08T02:59:04.603Z,100674.50
2022-12-08T03:00:10.416Z,100683.09
2022-12-08T03:01:25.086Z,100685.69
2022-12-08T03:02:48.466Z,100688.25
2022-12-08T03:03:51.074Z,100690.84
2022-12-08T03:05:02.431Z,100695.13
2022-12-08T03:06:10.942Z,100681.41
2022-12-08T03:07:35.765Z,100683.97
2022-12-08T03:08:53.869Z,100671.16
2022-12-08T03:09:59.458Z,100669.41
2022-12-08T03:11:25.711Z,100676.31
2022-12-08T03:12:37.637Z,100677.16
2022-12-08T03:13:56.353Z,100678.88
2022-12-08T03:15:10.848Z,100676.38
2022-12-08T03:16:17.714Z,100670.34
2022-12-08T03:17:24.717Z,100672.88
2022-12-08T03:18:33.126Z,100680.63
2022-12-08T03:19:41.974Z,100684.03
2022-12-08T03:20:47.716Z,100691.78
2022-12-08T03:21:54.312Z,100684.13
2022-12-08T03:23:00.277Z,100690.94
2022-12-08T03:24:06.778Z,100688.37
2022-12-08T03:25:14.907Z,100686.66
2022-12-08T03:26:25.430Z,100694.34
2022-12-08T03:27:30.226Z,100692.66
2022-12-08T03:28:33.614Z,100685.78
2022-12-08T03:29:36.640Z,100692.66
2022-12-08T03:30:43.009Z,100689.19
2022-12-08T03:31:56.891Z,100697.78
2022-12-08T03:33:09.731Z,100688.34
2022-12-08T03:34:14.196Z,100696.91
2022-12-08T03:35:22.790Z,100690.06
2022-12-08T03:36:26.079Z,100697.78
2022-12-08T03:37:29.401Z,100703.78
2022-12-08T03:38:40.642Z,100695.25
2022-12-08T03:39:43.316Z,100697.81
2022-12-08T03:41:06.450Z,100687.50
2022-12-08T03:42:09.427Z,100687.53
2022-12-08T03:43:12.463Z,100690.97
2022-12-08T03:44:15.070Z,100692.69
2022-12-08T03:45:17.679Z,100688.41
2022-12-08T03:47:24.343Z,100700.38
2022-12-08T03:48:27.127Z,100692.66
2022-12-08T03:49:29.739Z,100690.09
2022-12-08T03:50:32.551Z,100696.12
2022-12-08T03:51:35.181Z,100692.69
2022-12-08T03:52:38.101Z,100686.69
2022-12-08T03:53:40.759Z,100685.84
2022-12-08T03:54:43.323Z,100691.84
2022-12-08T03:55:45.955Z,100693.53
2022-12-08T03:56:48.580Z,100696.97
2022-12-08T03:57:51.454Z,100693.56
2022-12-08T03:58:54.982Z,100696.12
2022-12-08T03:59:57.690Z,100709.00
2022-12-08T04:01:00.268Z,100706.44
2022-12-08T04:02:03.246Z,100703.84
2022-12-08T04:03:06.540Z,100706.41
2022-12-08T04:04:09.354Z,100701.28
2022-12-08T04:05:11.980Z,100704.69
2022-12-08T04:06:15.072Z,100707.28
2022-12-08T04:07:18.266Z,100706.41
2022-12-08T04:08:21.168Z,100706.41
2022-12-08T04:09:23.944Z,100709.84
2022-12-08T04:10:26.575Z,100703.00
2022-12-08T04:11:29.206Z,100703.84
2022-12-08T04:12:32.249Z,100714.13
2022-12-08T04:13:36.154Z,100712.41
2022-12-08T04:14:38.820Z,100714.13
2022-12-08T04:15:45.742Z,100714.97
2022-12-08T04:16:48.969Z,100709.84
2022-12-08T04:17:51.916Z,100717.59
2022-12-08T04:18:54.900Z,100717.56
2022-12-08T04:19:57.524Z,100716.72
2022-12-08T04:21:00.175Z,100715.00
2022-12-08T04:22:02.818Z,100716.69
2022-12-08T04:23:05.724Z,100709.88
2022-12-08T04:24:09.512Z,100711.56
2022-12-08T04:25:12.135Z,100709.88
2022-12-08T04:26:14.979Z,100702.13
2022-12-08T04:27:17.662Z,100713.28
2022-12-08T04:28:21.834Z,100711.56
2022-12-08T04:29:24.602Z,100711.56
2022-12-08T04:30:27.315Z,100709.84
2022-12-08T04:31:29.939Z,100702.13
2022-12-08T04:32:32.942Z,100703.88
2022-12-08T04:33:35.890Z,100700.44
2022-12-08T04:34:38.550Z,100698.72
2022-12-08T04:35:41.375Z,100705.59
2022-12-08T04:36:44.058Z,100695.28
2022-12-08T04:37:47.005Z,100709.00
2022-12-08T04:38:50.665Z,100707.28
2022-12-08T04:39:53.285Z,100713.28
2022-12-08T04:40:55.884Z,100709.00
2022-12-08T04:41:58.637Z,100712.41
2022-12-08T04:43:01.237Z,100709.84
2022-12-08T04:44:04.281Z,100703.88
2022-12-08T04:45:07.682Z,100700.44
2022-12-08T04:46:11.065Z,100704.69
2022-12-08T04:47:13.764Z,100705.56
2022-12-08T04:48:16.958Z,100720.97
2022-12-08T04:49:19.932Z,100710.69
2022-12-08T04:50:22.615Z,100705.56
2022-12-08T04:51:25.285Z,100705.56
2022-12-08T04:52:27.928Z,100711.56
2022-12-08T04:53:30.573Z,100707.28
2022-12-08T04:54:33.622Z,100705.56
2022-12-08T04:55:40.461Z,100705.56
2022-12-08T04:56:43.140Z,100709.00
2022-12-08T04:57:46.484Z,100708.16
2022-12-08T04:58:49.274Z,100709.88
2022-12-08T04:59:52.158Z,100709.00
2022-12-08T05:00:54.869Z,100704.72
2022-12-08T05:01:57.733Z,100711.59
2022-12-08T05:03:00.943Z,100709.00
2022-12-08T05:04:03.809Z,100705.56
2022-12-08T05:05:07.153Z,100713.28
2022-12-08T05:06:13.198Z,100709.84
2022-12-08T05:07:16.082Z,100709.00
2022-12-08T05:08:18.880Z,100709.84
2022-12-08T05:09:21.558Z,100704.69
2022-12-08T05:10:24.551Z,100707.25
2022-12-08T05:11:27.150Z,100708.97
2022-12-08T05:12:29.819Z,100705.56
2022-12-08T05:13:32.979Z,100709.00
2022-12-08T05:14:35.634Z,100708.16
2022-12-08T05:15:38.607Z,100704.72
2022-12-08T05:16:41.977Z,100703.00
2022-12-08T05:17:45.272Z,100698.72
2022-12-08T05:18:47.967Z,100708.13
2022-12-08T05:19:50.629Z,100705.56
2022-12-08T05:20:53.545Z,100705.56
2022-12-08T05:21:56.209Z,100704.69
2022-12-08T05:22:58.792Z,100702.13
2022-12-08T05:24:01.471Z,100709.84
2022-12-08T05:25:04.487Z,100705.56
2022-12-08T05:26:07.861Z,100691.00
2022-12-08T05:27:10.745Z,100704.72
2022-12-08T05:28:40.111Z,100697.00
2022-12-08T05:29:37.419Z,100707.28
2022-12-08T05:30:40.629Z,100706.44
2022-12-08T05:31:43.941Z,100676.44
2022-12-08T05:32:46.565Z,100699.56
2022-12-08T05:33:50.652Z,100693.59
2022-12-08T05:34:53.599Z,100703.00
2022-12-08T05:35:56.215Z,100699.56
2022-12-08T05:36:59.309Z,100700.44
2022-12-08T05:38:02.498Z,100699.59
2022-12-08T05:39:05.152Z,100697.87
2022-12-08T05:40:08.517Z,100685.88
2022-12-08T05:41:21.309Z,100698.75
2022-12-08T05:42:25.062Z,100695.31
2022-12-08T05:43:27.943Z,100697.87
2022-12-08T05:44:30.603Z,100697.87
2022-12-08T05:45:33.637Z,100697.84
2022-12-08T05:46:37.806Z,100699.59
2022-12-08T05:47:40.984Z,100697.00
2022-12-08T05:48:43.637Z,100703.88
2022-12-08T05:49:46.552Z,100708.13
2022-12-08T05:50:53.334Z,100695.28
2022-12-08T05:51:56.005Z,100700.44
2022-12-08T05:53:02.250Z,100707.28
2022-12-08T05:54:04.958Z,100707.28
2022-12-08T05:55:08.140Z,100705.56
2022-12-08T05:56:12.303Z,100707.28
2022-12-08T05:57:15.292Z,100703.88
2022-12-08T05:58:22.951Z,100712.41
2022-12-08T05:59:25.593Z,100712.41
2022-12-08T06:00:28.271Z,100714.16
2022-12-08T06:01:32.080Z,100710.72
2022-12-08T06:02:35.943Z,100700.47
2022-12-08T06:03:38.799Z,100720.16
2022-12-08T06:04:41.788Z,100718.44
2022-12-08T06:05:46.232Z,100718.44
2022-12-08T06:06:50.005Z,100718.44
2022-12-08T06:07:52.657Z,100708.16
2022-12-08T06:08:55.361Z,100709.00
2022-12-08T06:09:58.247Z,100701.28
2022-12-08T06:11:00.994Z,100718.44
2022-12-08T06:12:04.157Z,100706.44
2022-12-08T06:13:06.719Z,100716.72
2022-12-08T06:14:12.658Z,100702.13
2022-12-08T06:15:15.388Z,100715.88
2022-12-08T06:16:19.022Z,100714.97
2022-12-08T06:17:22.343Z,100715.00
2022-12-08T06:18:29.653Z,100710.72
2022-12-08T06:19:35.693Z,100710.72
2022-12-08T06:20:38.456Z,100712.44
2022-12-08T06:21:41.119Z,100715.00
2022-12-08T06:22:44.055Z,100717.56
2022-12-08T06:23:53.957Z,100712.41
2022-12-08T06:24:56.570Z,100718.41
2022-12-08T06:26:07.303Z,100713.28
2022-12-08T06:27:09.984Z,100712.44
2022-12-08T06:28:13.119Z,100720.12
2022-12-08T06:29:15.840Z,100722.72
2022-12-08T06:30:18.779Z,100731.25
2022-12-08T06:31:25.894Z,100726.13
2022-12-08T06:32:28.665Z,100724.41
2022-12-08T06:33:31.590Z,100727.81
2022-12-08T06:34:34.295Z,100726.09
2022-12-08T06:35:37.414Z,100726.97
2022-12-08T06:36:40.118Z,100733.81
2022-12-08T06:37:43.383Z,100728.66
2022-12-08T06:38:46.760Z,100729.50
2022-12-08T06:39:49.461Z,100732.09
2022-12-08T06:40:56.056Z,100732.91
2022-12-08T06:42:17.227Z,100729.50
2022-12-08T06:43:19.826Z,100735.50
2022-12-08T06:44:22.881Z,100729.47
2022-12-08T06:45:25.542Z,100731.22
2022-12-08T06:46:28.224Z,100738.06
2022-12-08T06:47:31.105Z,100738.06
2022-12-08T06:48:34.804Z,100736.38
2022-12-08T06:49:37.778Z,100733.78
2022-12-08T06:50:40.491Z,100738.94
2022-12-08T06:51:43.164Z,100738.06
2022-12-08T06:52:58.244Z,100738.06
2022-12-08T06:54:05.639Z,100733.75
2022-12-08T06:55:09.381Z,100734.59
2022-12-08T06:56:13.094Z,100738.87
2022-12-08T06:57:15.823Z,100743.16
2022-12-08T06:58:18.936Z,100746.59
2022-12-08T06:59:21.767Z,100741.41
2022-12-08T07:00:25.923Z,100746.56
2022-12-08T07:01:28.712Z,100756.00
2022-12-08T07:02:31.841Z,100750.88
2022-12-08T07:03:35.169Z,100750.00
2022-12-08T07:04:37.884Z,100754.28
2022-12-08T07:05:40.922Z,100754.28
2022-12-08T07:06:43.884Z,100756.81
2022-12-08T07:07:46.600Z,100756.84
2022-12-08T07:08:49.640Z,100747.41
2022-12-08T07:09:52.413Z,100752.56
2022-12-08T07:10:55.469Z,100759.41
2022-12-08T07:11:58.215Z,100755.16
2022-12-08T07:13:00.885Z,100755.97
2022-12-08T07:14:03.606Z,100753.41
2022-12-08T07:15:07.235Z,100756.81
2022-12-08T07:16:12.148Z,100755.13
2022-12-08T07:17:15.689Z,100754.28
2022-12-08T07:18:18.453Z,100763.69
2022-12-08T07:19:21.853Z,100766.25
2022-12-08T07:20:29.899Z,100769.69
2022-12-08T07:21:39.638Z,100774.84
2022-12-08T07:22:47.747Z,100767.97
2022-12-08T07:23:55.923Z,100769.66
2022-12-08T07:25:00.099Z,100772.25
2022-12-08T07:26:06.233Z,100768.78
2022-12-08T07:27:09.141Z,100761.94
2022-12-08T07:28:12.067Z,100774.81
2022-12-08T07:29:14.721Z,100775.66
2022-12-08T07:30:17.739Z,100773.06
2022-12-08T07:31:23.861Z,100767.91
2022-12-08T07:32:30.037Z,100767.91
2022-12-08T07:33:33.987Z,100770.47
2022-12-08T07:34:36.845Z,100773.03
2022-12-08T07:35:40.570Z,100781.62
2022-12-08T07:36:45.606Z,100775.56
2022-12-08T07:37:48.605Z,100779.87
2022-12-08T07:38:53.362Z,100780.72
2022-12-08T07:39:55.949Z,100778.09
2022-12-08T07:40:58.937Z,100778.09
2022-12-08T07:42:01.647Z,100775.47
2022-12-08T07:43:04.568Z,100779.75
2022-12-08T07:44:07.348Z,100782.28
2022-12-08T07:45:10.222Z,100790.00
2022-12-08T07:46:14.413Z,100788.25
2022-12-08T07:47:17.475Z,100790.78
2022-12-08T07:48:20.650Z,100787.31
2022-12-08T07:49:23.484Z,100789.81
2022-12-08T07:50:33.895Z,100788.94
2022-12-08T07:51:36.993Z,100792.38
2022-12-08T07:52:39.614Z,100788.03
2022-12-08T07:53:48.399Z,100788.88
2022-12-08T07:54:54.409Z,100789.72
2022-12-08T07:56:06.900Z,100786.31
2022-12-08T07:57:09.934Z,100783.66
2022-12-08T07:58:12.661Z,100783.69
2022-12-08T07:59:15.705Z,100791.38
2022-12-08T08:00:37.908Z,100787.09
2022-12-08T08:01:45.128Z,100786.25
2022-12-08T08:02:48.246Z,100784.50
2022-12-08T08:03:51.130Z,100778.47
2022-12-08T08:05:00.700Z,100775.06
2022-12-08T08:06:04.582Z,100779.28
2022-12-08T08:07:07.522Z,100780.97
2022-12-08T08:08:11.334Z,100773.16
2022-12-08T08:09:14.015Z,100776.63
2022-12-08T08:10:23.836Z,100775.75
2022-12-08T08:11:26.868Z,100772.28
2022-12-08T08:12:31.856Z,100768.81
2022-12-08T08:13:35.476Z,100775.66
2022-12-08T08:14:38.136Z,100770.44
2022-12-08T08:15:47.681Z,100731.97
2022-12-08T08:16:50.478Z,100770.47
2022-12-08T08:17:53.727Z,100776.53
2022-12-08T08:18:56.464Z,100777.38
2022-12-08T08:20:49.281Z,100775.63
2022-12-08T08:21:51.907Z,100774.75
2022-12-08T08:22:54.957Z,100766.16
2022-12-08T08:23:57.558Z,100768.72
2022-12-08T08:25:00.191Z,100771.22
2022-12-08T08:26:09.650Z,100773.75
2022-12-08T08:27:12.694Z,100775.53
2022-12-08T08:28:15.707Z,100781.53
2022-12-08T08:29:18.422Z,100783.22
2022-12-08T08:31:12.148Z,100784.94
2022-12-08T08:32:14.895Z,100782.31
2022-12-08T08:33:17.848Z,100782.31
2022-12-08T08:34:20.490Z,100779.75
2022-12-08T08:36:13.340Z,100781.44
2022-12-08T08:37:15.928Z,100777.13
2022-12-08T08:38:19.033Z,100780.56
2022-12-08T08:39:21.735Z,100789.16
2022-12-08T08:41:18.409Z,100777.97
2022-12-08T08:42:27.601Z,100784.81
2022-12-08T08:43:37.594Z,100781.28
2022-12-08T08:44:40.924Z,100784.69
2022-12-08T08:46:58.947Z,100777.81
2022-12-08T08:48:01.818Z,100778.63
2022-12-08T08:49:04.840Z,100776.06
2022-12-08T08:50:08.175Z,100777.81
2022-12-08T08:51:13.391Z,100774.38
2022-12-08T08:52:16.046Z,100776.06
2022-12-08T08:53:25.711Z,100777.78
2022-12-08T08:54:30.004Z,100766.66
2022-12-08T08:55:32.625Z,100716.19
2022-12-08T08:56:35.511Z,100771.81
2022-12-08T08:57:38.152Z,100776.16
2022-12-08T08:58:41.577Z,100761.50
2022-12-08T08:59:44.540Z,100765.00
2022-12-08T09:00:47.206Z,100767.59
2022-12-08T09:01:50.028Z,100768.41
2022-12-08T09:02:52.912Z,100768.41
2022-12-08T09:03:56.612Z,100760.59
2022-12-08T09:04:59.881Z,100764.81
2022-12-08T09:06:02.684Z,100761.34
2022-12-08T09:07:05.342Z,100760.53
2022-12-08T09:08:08.390Z,100757.94
2022-12-08T09:09:11.557Z,100754.44
2022-12-08T09:10:14.872Z,100762.13
2022-12-08T09:11:18.780Z,100760.44
2022-12-08T09:12:21.781Z,100756.13
2022-12-08T09:13:24.513Z,100757.81
2022-12-08T09:14:27.956Z,100756.94
2022-12-08T09:15:31.179Z,100760.38
2022-12-08T14:21:20.449Z,100515.56
2022-12-08T14:22:25.014Z,100505.22
2022-12-08T14:23:28.073Z,100495.78
2022-12-08T14:24:32.216Z,100501.84
2022-12-08T14:25:35.918Z,100497.53
2022-12-08T14:26:38.766Z,100493.25
2022-12-08T14:27:43.655Z,100493.31
2022-12-08T14:28:46.357Z,100489.88
2022-12-08T14:29:52.541Z,100483.84
2022-12-08T14:30:55.957Z,100480.41
2022-12-08T14:31:58.620Z,100471.00
2022-12-08T14:33:04.236Z,100471.84
2022-12-08T14:34:06.901Z,100469.25
2022-12-08T14:35:09.501Z,100471.00
2022-12-08T14:36:15.925Z,100476.16
2022-12-08T14:37:18.689Z,100484.72
2022-12-08T14:38:24.715Z,100483.84
2022-12-08T14:39:27.642Z,100484.72
2022-12-08T14:40:40.019Z,100483.91
2022-12-08T14:41:59.991Z,100481.28
2022-12-08T14:43:13.633Z,100485.59
2022-12-08T14:44:23.990Z,100487.28
2022-12-08T14:45:26.994Z,100484.72
2022-12-08T14:46:29.992Z,100485.59
2022-12-08T14:47:34.758Z,100481.28
2022-12-08T14:48:37.374Z,100487.28
2022-12-08T14:49:40.723Z,100485.53
2022-12-08T14:50:55.486Z,100488.13
2022-12-08T14:51:59.544Z,100484.66
2022-12-08T14:53:02.755Z,100491.56
2022-12-08T14:54:13.909Z,100498.47
2022-12-08T14:55:17.158Z,100495.88
2022-12-08T14:56:51.791Z,100502.78
2022-12-08T14:57:55.073Z,100492.41
2022-12-08T14:59:23.102Z,100487.25
2022-12-08T15:00:27.378Z,100489.88
2022-12-08T15:01:30.640Z,100488.13
2022-12-08T15:02:33.581Z,100479.53
2022-12-08T15:03:36.897Z,100477.84
2022-12-08T15:04:44.667Z,100490.72
2022-12-08T15:05:52.384Z,100483.06
2022-12-08T15:07:07.407Z,100497.56
2022-12-08T15:08:13.192Z,100489.81
2022-12-08T15:09:41.118Z,100482.13
2022-12-08T15:10:48.241Z,100482.91
2022-12-08T15:12:26.180Z,100477.69
2022-12-08T15:13:30.352Z,100476.00
2022-12-08T15:14:36.123Z,100482.03
2022-12-08T15:15:58.367Z,100481.19
2022-12-08T15:17:01.911Z,100474.31
2022-12-08T15:18:35.356Z,100472.62
2022-12-08T15:19:38.072Z,100466.56
2022-12-08T15:20:44.169Z,100463.16
2022-12-08T15:21:47.650Z,100462.25
2022-12-08T15:22:50.963Z,100459.69
2022-12-08T15:23:53.649Z,100448.59
2022-12-08T15:24:57.198Z,100457.97
2022-12-08T15:26:00.219Z,100458.81
2022-12-08T15:27:04.026Z,100454.59
2022-12-08T15:28:06.951Z,100461.41
2022-12-08T15:29:30.837Z,100457.97
2022-12-08T15:30:34.448Z,100448.44
2022-12-08T15:31:37.302Z,100455.34
2022-12-08T15:32:40.010Z,100451.91
2022-12-08T15:33:43.000Z,100457.91
2022-12-08T15:34:47.167Z,100453.59
2022-12-08T15:35:50.752Z,100446.84
2022-12-08T15:36:54.876Z,100444.25
2022-12-08T15:37:57.624Z,100452.81
2022-12-08T15:39:00.907Z,100445.91
2022-12-08T15:40:16.100Z,100453.59
2022-12-08T15:41:18.686Z,100443.28
2022-12-08T15:42:21.350Z,100445.84
2022-12-08T15:43:24.205Z,100444.16
2022-12-08T15:44:27.613Z,100446.75
2022-12-08T15:45:32.657Z,100445.00
2022-12-08T15:46:48.823Z,100442.53
2022-12-08T15:47:52.631Z,100437.41
2022-12-08T15:48:58.258Z,100455.28
2022-12-08T15:50:04.744Z,100452.69
2022-12-08T15:51:07.928Z,100444.16
2022-12-08T15:52:14.746Z,100449.31
2022-12-08T15:53:17.467Z,100448.44
2022-12-08T15:54:20.423Z,100444.16
2022-12-08T15:55:23.570Z,100445.84
2022-12-08T15:56:27.764Z,100451.91
2022-12-08T15:58:57.206Z,100445.84
2022-12-08T16:00:00.169Z,100451.00
2022-12-08T16:01:03.681Z,100450.97
2022-12-08T16:02:06.787Z,100456.12
2022-12-08T16:03:51.582Z,100444.94
2022-12-08T16:07:30.245Z,100432.88
2022-12-08T16:08:56.146Z,100431.22
2022-12-08T16:09:56.877Z,100430.34
2022-12-08T16:11:56.603Z,100433.81
2022-12-08T16:13:55.592Z,100428.66
2022-12-08T16:15:23.769Z,100420.91
2022-12-08T16:15:59.825Z,100418.31
2022-12-08T16:17:03.148Z,100413.16
2022-12-08T16:18:06.946Z,100405.41
2022-12-08T16:19:14.483Z,100395.91
2022-12-08T16:20:18.238Z,100400.19
2022-12-08T16:21:53.499Z,100388.16
2022-12-08T16:22:56.422Z,100386.41
2022-12-08T16:24:08.901Z,100386.41
2022-12-08T16:25:18.784Z,100388.09
2022-12-08T16:27:13.875Z,100393.25
2022-12-08T16:28:01.172Z,100379.56
2022-12-08T16:29:07.059Z,100380.34
2022-12-08T16:30:15.596Z,100371.81
2022-12-08T16:31:22.792Z,100381.22
2022-12-08T16:32:26.802Z,100380.34
2022-12-08T16:33:29.613Z,100384.69
2022-12-08T16:34:32.677Z,100390.63
2022-12-08T16:35:35.857Z,100394.13
2022-12-08T16:36:38.794Z,100395.84
2022-12-08T16:37:41.774Z,100402.75
2022-12-08T16:38:45.048Z,100392.47
2022-12-08T16:39:50.357Z,100387.31
2022-12-08T16:41:11.935Z,100389.91
2022-12-08T16:42:34.231Z,100388.22
2022-12-08T16:43:36.861Z,100383.16
2022-12-08T16:44:42.451Z,100387.41
2022-12-08T16:45:46.097Z,100391.72
2022-12-08T16:46:49.180Z,100386.59
2022-12-08T16:47:55.043Z,100385.81
2022-12-08T16:48:59.179Z,100374.75
2022-12-08T16:50:15.309Z,100374.69
2022-12-08T16:51:25.106Z,100384.91
2022-12-08T16:52:30.459Z,100382.31
2022-12-08T16:53:33.203Z,100386.59
2022-12-08T16:54:36.022Z,100386.59
2022-12-08T16:55:39.547Z,100389.19
2022-12-08T16:56:43.323Z,100391.78
2022-12-08T16:57:47.893Z,100392.66
2022-12-08T16:58:50.641Z,100390.91
2022-12-08T16:59:53.536Z,100386.59
2022-12-08T17:00:56.854Z,100383.22
2022-12-08T17:02:00.325Z,100378.12
2022-12-08T17:03:04.912Z,100378.06
2022-12-08T17:04:30.329Z,100380.59
2022-12-08T17:05:31.266Z,100380.66
2022-12-08T17:06:34.130Z,100386.59
2022-12-08T17:07:37.274Z,100379.75
2022-12-08T17:08:42.287Z,100384.91
2022-12-08T17:09:45.566Z,100386.59
2022-12-08T17:11:07.566Z,100383.16
2022-12-08T17:12:10.745Z,100384.78
2022-12-08T17:13:17.220Z,100386.53
2022-12-08T17:14:20.013Z,100383.09
2022-12-08T17:15:25.942Z,100385.69
2022-12-08T17:16:28.923Z,100379.69
2022-12-08T17:17:34.800Z,100383.09
2022-12-08T17:18:38.812Z,100384.84
2022-12-08T17:19:41.642Z,100378.78
2022-12-08T17:20:45.061Z,100383.91
2022-12-08T17:21:48.297Z,100388.22
2022-12-08T17:22:55.656Z,100382.19
2022-12-08T17:23:58.670Z,100380.41
2022-12-08T17:25:02.940Z,100383.03
2022-12-08T17:26:07.320Z,100372.72
2022-12-08T17:27:10.095Z,100372.66
2022-12-08T17:28:26.485Z,100375.25
2022-12-08T17:29:39.648Z,100375.25
2022-12-08T17:30:42.873Z,100379.56
2022-12-08T17:31:46.024Z,100368.41
2022-12-08T17:32:49.845Z,100383.94
2022-12-08T17:33:54.724Z,100377.94
2022-12-08T17:34:58.147Z,100384.75
2022-12-08T17:36:01.178Z,100388.22
2022-12-08T17:37:03.988Z,100384.78
2022-12-08T17:38:06.720Z,100387.38
2022-12-08T17:39:14.963Z,100387.31
2022-12-08T17:40:22.887Z,100382.16
2022-12-08T17:41:28.303Z,100372.66
2022-12-08T17:42:32.609Z,100367.50
2022-12-08T17:43:36.348Z,100369.19
2022-12-08T17:44:39.903Z,100363.16
2022-12-08T17:45:46.622Z,100365.72
2022-12-08T17:46:52.900Z,100361.38
2022-12-08T17:48:02.459Z,100363.09
2022-12-08T17:49:10.716Z,100365.69